sensor_id;sensor_type;location;lat;lon;timestamp;P1;durP1;ratioP1;P2;durP2;ratioP2
22388;SDS011;11362;48.102;11.620;2023-03-31T00:00:26;2.53;;;1.60;;
22388;SDS011;11362;48.102;11.620;2023-03-31T00:02:51;5.23;;;2.03;;
22388;SDS011;11362;48.102;11.620;2023-03-31T00:05:17;3.13;;;1.60;;
22388;SDS011;11362;48.102;11.620;2023-03-31T00:07:42;3.17;;;1.73;;
22388;SDS011;11362;48.102;11.620;2023-03-31T00:10:08;1.53;;;1.40;;
22388;SDS011;11362;48.102;11.620;2023-03-31T00:12:34;1.67;;;1.57;;
22388;SDS011;11362;48.102;11.620;2023-03-31T00:14:59;2.13;;;1.30;;
22388;SDS011;11362;48.102;11.620;2023-03-31T00:17:24;1.40;;;1.30;;
22388;SDS011;11362;48.102;11.620;2023-03-31T00:19:50;4.13;;;1.57;;
22388;SDS011;11362;48.102;11.620;2023-03-31T00:22:15;1.43;;;1.33;;
22388;SDS011;11362;48.102;11.620;2023-03-31T00:24:41;4.30;;;1.47;;
22388;SDS011;11362;48.102;11.620;2023-03-31T00:27:06;1.60;;;1.50;;
22388;SDS011;11362;48.102;11.620;2023-03-31T00:29:31;2.03;;;1.33;;
22388;SDS011;11362;48.102;11.620;2023-03-31T00:31:57;1.87;;;1.63;;
22388;SDS011;11362;48.102;11.620;2023-03-31T00:34:22;1.60;;;1.50;;
22388;SDS011;11362;48.102;11.620;2023-03-31T00:36:47;1.47;;;1.30;;
22388;SDS011;11362;48.102;11.620;2023-03-31T00:39:14;2.63;;;1.40;;
22388;SDS011;11362;48.102;11.620;2023-03-31T00:41:41;1.63;;;1.47;;
22388;SDS011;11362;48.102;11.620;2023-03-31T00:44:11;1.47;;;1.37;;
22388;SDS011;11362;48.102;11.620;2023-03-31T00:46:49;2.93;;;1.33;;
22388;SDS011;11362;48.102;11.620;2023-03-31T00:49:20;1.73;;;1.43;;
22388;SDS011;11362;48.102;11.620;2023-03-31T00:51:51;5.07;;;1.90;;
22388;SDS011;11362;48.102;11.620;2023-03-31T00:54:19;1.93;;;1.40;;
22388;SDS011;11362;48.102;11.620;2023-03-31T00:56:47;1.70;;;1.50;;
22388;SDS011;11362;48.102;11.620;2023-03-31T00:59:14;2.23;;;1.63;;
22388;SDS011;11362;48.102;11.620;2023-03-31T01:01:40;3.00;;;1.67;;
22388;SDS011;11362;48.102;11.620;2023-03-31T01:04:09;1.57;;;1.47;;
22388;SDS011;11362;48.102;11.620;2023-03-31T01:06:37;3.60;;;1.77;;
22388;SDS011;11362;48.102;11.620;2023-03-31T01:09:10;2.53;;;1.40;;
22388;SDS011;11362;48.102;11.620;2023-03-31T01:11:36;1.77;;;1.57;;
22388;SDS011;11362;48.102;11.620;2023-03-31T01:14:02;1.50;;;1.33;;
22388;SDS011;11362;48.102;11.620;2023-03-31T01:16:27;1.50;;;1.40;;
22388;SDS011;11362;48.102;11.620;2023-03-31T01:18:52;2.00;;;1.80;;
22388;SDS011;11362;48.102;11.620;2023-03-31T01:24:05;1.97;;;1.60;;
22388;SDS011;11362;48.102;11.620;2023-03-31T01:49:09;2.30;;;1.47;;
22388;SDS011;11362;48.102;11.620;2023-03-31T01:54:34;1.70;;;1.60;;
22388;SDS011;11362;48.102;11.620;2023-03-31T02:05:24;1.63;;;1.53;;
22388;SDS011;11362;48.102;11.620;2023-03-31T02:07:53;2.50;;;1.80;;
22388;SDS011;11362;48.102;11.620;2023-03-31T02:10:21;1.53;;;1.43;;
22388;SDS011;11362;48.102;11.620;2023-03-31T02:12:51;1.93;;;1.70;;
22388;SDS011;11362;48.102;11.620;2023-03-31T02:15:20;1.67;;;1.47;;
22388;SDS011;11362;48.102;11.620;2023-03-31T02:17:50;3.13;;;1.53;;
22388;SDS011;11362;48.102;11.620;2023-03-31T02:20:20;1.57;;;1.47;;
22388;SDS011;11362;48.102;11.620;2023-03-31T02:22:48;1.70;;;1.50;;
22388;SDS011;11362;48.102;11.620;2023-03-31T02:25:17;1.67;;;1.43;;
22388;SDS011;11362;48.102;11.620;2023-03-31T02:27:48;1.50;;;1.40;;
22388;SDS011;11362;48.102;11.620;2023-03-31T02:30:21;2.13;;;2.00;;
22388;SDS011;11362;48.102;11.620;2023-03-31T02:32:51;1.60;;;1.40;;
22388;SDS011;11362;48.102;11.620;2023-03-31T02:35:18;1.60;;;1.50;;
22388;SDS011;11362;48.102;11.620;2023-03-31T02:37:44;2.20;;;2.00;;
22388;SDS011;11362;48.102;11.620;2023-03-31T02:40:12;1.60;;;1.50;;
22388;SDS011;11362;48.102;11.620;2023-03-31T02:42:41;1.87;;;1.77;;
22388;SDS011;11362;48.102;11.620;2023-03-31T02:48:02;1.77;;;1.67;;
22388;SDS011;11362;48.102;11.620;2023-03-31T02:50:31;1.57;;;1.50;;
22388;SDS011;11362;48.102;11.620;2023-03-31T02:53:22;1.70;;;1.60;;
22388;SDS011;11362;48.102;11.620;2023-03-31T03:05:09;2.00;;;1.90;;
22388;SDS011;11362;48.102;11.620;2023-03-31T03:13:34;2.10;;;2.00;;
22388;SDS011;11362;48.102;11.620;2023-03-31T03:16:22;1.60;;;1.47;;
22388;SDS011;11362;48.102;11.620;2023-03-31T03:19:00;1.70;;;1.60;;
22388;SDS011;11362;48.102;11.620;2023-03-31T03:21:27;1.97;;;1.73;;
22388;SDS011;11362;48.102;11.620;2023-03-31T03:23:53;2.20;;;1.97;;
22388;SDS011;11362;48.102;11.620;2023-03-31T03:26:19;1.27;;;1.27;;
22388;SDS011;11362;48.102;11.620;2023-03-31T03:28:44;1.90;;;1.70;;
22388;SDS011;11362;48.102;11.620;2023-03-31T03:31:10;1.40;;;1.40;;
22388;SDS011;11362;48.102;11.620;2023-03-31T03:33:35;2.20;;;2.10;;
22388;SDS011;11362;48.102;11.620;2023-03-31T03:36:00;1.83;;;1.73;;
22388;SDS011;11362;48.102;11.620;2023-03-31T03:38:26;2.40;;;1.70;;
22388;SDS011;11362;48.102;11.620;2023-03-31T03:40:52;2.10;;;1.90;;
22388;SDS011;11362;48.102;11.620;2023-03-31T03:43:17;1.87;;;1.77;;
22388;SDS011;11362;48.102;11.620;2023-03-31T03:45:46;1.70;;;1.60;;
22388;SDS011;11362;48.102;11.620;2023-03-31T03:48:12;2.40;;;1.70;;
22388;SDS011;11362;48.102;11.620;2023-03-31T03:50:37;2.60;;;2.13;;
22388;SDS011;11362;48.102;11.620;2023-03-31T03:53:03;2.03;;;1.93;;
22388;SDS011;11362;48.102;11.620;2023-03-31T03:55:28;2.33;;;1.87;;
22388;SDS011;11362;48.102;11.620;2023-03-31T03:57:53;2.37;;;1.53;;
22388;SDS011;11362;48.102;11.620;2023-03-31T04:00:19;2.10;;;1.87;;
22388;SDS011;11362;48.102;11.620;2023-03-31T04:02:44;1.70;;;1.60;;
22388;SDS011;11362;48.102;11.620;2023-03-31T04:05:09;1.77;;;1.67;;
22388;SDS011;11362;48.102;11.620;2023-03-31T04:07:34;1.60;;;1.50;;
22388;SDS011;11362;48.102;11.620;2023-03-31T04:10:00;1.63;;;1.53;;
22388;SDS011;11362;48.102;11.620;2023-03-31T04:12:25;1.83;;;1.70;;
22388;SDS011;11362;48.102;11.620;2023-03-31T04:14:50;2.00;;;1.90;;
22388;SDS011;11362;48.102;11.620;2023-03-31T04:17:16;1.57;;;1.53;;
22388;SDS011;11362;48.102;11.620;2023-03-31T04:19:41;1.43;;;1.33;;
22388;SDS011;11362;48.102;11.620;2023-03-31T04:22:06;1.27;;;1.20;;
22388;SDS011;11362;48.102;11.620;2023-03-31T04:24:32;1.53;;;1.43;;
22388;SDS011;11362;48.102;11.620;2023-03-31T04:26:58;1.60;;;1.50;;
22388;SDS011;11362;48.102;11.620;2023-03-31T04:29:24;1.90;;;1.80;;
22388;SDS011;11362;48.102;11.620;2023-03-31T04:31:50;1.80;;;1.70;;
22388;SDS011;11362;48.102;11.620;2023-03-31T04:34:15;1.53;;;1.50;;
22388;SDS011;11362;48.102;11.620;2023-03-31T04:36:45;2.60;;;1.83;;
22388;SDS011;11362;48.102;11.620;2023-03-31T04:39:11;3.07;;;2.00;;
22388;SDS011;11362;48.102;11.620;2023-03-31T04:41:37;8.73;;;2.20;;
22388;SDS011;11362;48.102;11.620;2023-03-31T04:44:03;5.70;;;2.10;;
22388;SDS011;11362;48.102;11.620;2023-03-31T04:46:28;3.57;;;2.03;;
22388;SDS011;11362;48.102;11.620;2023-03-31T04:48:53;4.60;;;2.20;;
22388;SDS011;11362;48.102;11.620;2023-03-31T04:51:19;5.87;;;2.20;;
22388;SDS011;11362;48.102;11.620;2023-03-31T04:53:44;6.23;;;2.80;;
22388;SDS011;11362;48.102;11.620;2023-03-31T04:56:10;10.43;;;2.93;;
22388;SDS011;11362;48.102;11.620;2023-03-31T04:58:35;7.30;;;2.73;;
22388;SDS011;11362;48.102;11.620;2023-03-31T05:01:00;9.47;;;3.27;;
22388;SDS011;11362;48.102;11.620;2023-03-31T05:03:26;11.03;;;4.10;;
22388;SDS011;11362;48.102;11.620;2023-03-31T05:05:51;16.40;;;3.60;;
22388;SDS011;11362;48.102;11.620;2023-03-31T05:08:16;23.27;;;4.23;;
22388;SDS011;11362;48.102;11.620;2023-03-31T05:10:42;11.93;;;3.03;;
22388;SDS011;11362;48.102;11.620;2023-03-31T05:13:10;14.47;;;4.37;;
22388;SDS011;11362;48.102;11.620;2023-03-31T05:15:39;13.60;;;3.50;;
22388;SDS011;11362;48.102;11.620;2023-03-31T05:18:05;13.07;;;3.87;;
22388;SDS011;11362;48.102;11.620;2023-03-31T05:20:31;14.83;;;3.83;;
22388;SDS011;11362;48.102;11.620;2023-03-31T05:22:56;13.43;;;3.40;;
22388;SDS011;11362;48.102;11.620;2023-03-31T05:25:21;11.17;;;3.37;;
22388;SDS011;11362;48.102;11.620;2023-03-31T05:27:47;14.07;;;3.87;;
22388;SDS011;11362;48.102;11.620;2023-03-31T05:30:13;14.47;;;3.67;;
22388;SDS011;11362;48.102;11.620;2023-03-31T05:32:39;17.40;;;3.77;;
22388;SDS011;11362;48.102;11.620;2023-03-31T05:35:04;11.73;;;3.77;;
22388;SDS011;11362;48.102;11.620;2023-03-31T05:37:30;14.20;;;3.30;;
22388;SDS011;11362;48.102;11.620;2023-03-31T05:39:56;12.00;;;3.10;;
22388;SDS011;11362;48.102;11.620;2023-03-31T05:42:21;13.30;;;3.07;;
22388;SDS011;11362;48.102;11.620;2023-03-31T05:44:47;11.87;;;3.07;;
22388;SDS011;11362;48.102;11.620;2023-03-31T05:47:12;8.73;;;3.17;;
22388;SDS011;11362;48.102;11.620;2023-03-31T05:49:37;11.20;;;3.17;;
22388;SDS011;11362;48.102;11.620;2023-03-31T05:52:04;10.50;;;3.70;;
22388;SDS011;11362;48.102;11.620;2023-03-31T05:54:30;11.70;;;3.80;;
22388;SDS011;11362;48.102;11.620;2023-03-31T05:56:55;13.37;;;3.83;;
22388;SDS011;11362;48.102;11.620;2023-03-31T05:59:20;10.70;;;3.47;;
22388;SDS011;11362;48.102;11.620;2023-03-31T06:01:46;9.87;;;3.47;;
22388;SDS011;11362;48.102;11.620;2023-03-31T06:04:11;14.47;;;3.67;;
22388;SDS011;11362;48.102;11.620;2023-03-31T06:06:36;12.83;;;3.53;;
22388;SDS011;11362;48.102;11.620;2023-03-31T06:09:01;10.40;;;2.83;;
22388;SDS011;11362;48.102;11.620;2023-03-31T06:11:27;14.87;;;3.60;;
22388;SDS011;11362;48.102;11.620;2023-03-31T06:13:53;11.73;;;3.43;;
22388;SDS011;11362;48.102;11.620;2023-03-31T06:16:18;11.23;;;3.47;;
22388;SDS011;11362;48.102;11.620;2023-03-31T06:18:43;13.10;;;3.50;;
22388;SDS011;11362;48.102;11.620;2023-03-31T06:21:13;12.00;;;3.77;;
22388;SDS011;11362;48.102;11.620;2023-03-31T06:23:40;15.10;;;3.17;;
22388;SDS011;11362;48.102;11.620;2023-03-31T06:26:07;8.00;;;2.77;;
22388;SDS011;11362;48.102;11.620;2023-03-31T06:28:33;12.70;;;3.10;;
22388;SDS011;11362;48.102;11.620;2023-03-31T06:31:03;9.43;;;3.00;;
22388;SDS011;11362;48.102;11.620;2023-03-31T06:33:31;6.00;;;2.83;;
22388;SDS011;11362;48.102;11.620;2023-03-31T06:35:57;12.47;;;3.07;;
22388;SDS011;11362;48.102;11.620;2023-03-31T06:38:22;9.63;;;2.60;;
22388;SDS011;11362;48.102;11.620;2023-03-31T06:40:48;7.17;;;3.23;;
22388;SDS011;11362;48.102;11.620;2023-03-31T06:43:14;10.53;;;3.27;;
22388;SDS011;11362;48.102;11.620;2023-03-31T06:45:39;15.17;;;3.50;;
22388;SDS011;11362;48.102;11.620;2023-03-31T06:48:04;11.20;;;3.27;;
22388;SDS011;11362;48.102;11.620;2023-03-31T06:50:30;13.83;;;3.77;;
22388;SDS011;11362;48.102;11.620;2023-03-31T06:52:55;12.03;;;3.70;;
22388;SDS011;11362;48.102;11.620;2023-03-31T06:55:21;14.83;;;3.37;;
22388;SDS011;11362;48.102;11.620;2023-03-31T06:57:46;9.43;;;3.37;;
22388;SDS011;11362;48.102;11.620;2023-03-31T07:00:11;12.50;;;4.00;;
22388;SDS011;11362;48.102;11.620;2023-03-31T07:02:37;15.17;;;3.53;;
22388;SDS011;11362;48.102;11.620;2023-03-31T07:05:03;13.70;;;3.37;;
22388;SDS011;11362;48.102;11.620;2023-03-31T07:07:31;11.27;;;4.10;;
22388;SDS011;11362;48.102;11.620;2023-03-31T07:09:57;12.63;;;3.50;;
22388;SDS011;11362;48.102;11.620;2023-03-31T07:12:23;12.93;;;3.53;;
22388;SDS011;11362;48.102;11.620;2023-03-31T07:14:48;16.80;;;3.77;;
22388;SDS011;11362;48.102;11.620;2023-03-31T07:17:13;11.53;;;3.30;;
22388;SDS011;11362;48.102;11.620;2023-03-31T07:19:38;13.10;;;3.30;;
22388;SDS011;11362;48.102;11.620;2023-03-31T07:22:04;10.53;;;4.07;;
22388;SDS011;11362;48.102;11.620;2023-03-31T07:24:29;12.80;;;3.63;;
22388;SDS011;11362;48.102;11.620;2023-03-31T07:26:54;11.13;;;3.83;;
22388;SDS011;11362;48.102;11.620;2023-03-31T07:29:20;7.53;;;3.00;;
22388;SDS011;11362;48.102;11.620;2023-03-31T07:31:45;7.97;;;3.13;;
22388;SDS011;11362;48.102;11.620;2023-03-31T07:34:11;11.17;;;3.13;;
22388;SDS011;11362;48.102;11.620;2023-03-31T07:36:36;10.77;;;3.53;;
22388;SDS011;11362;48.102;11.620;2023-03-31T07:39:02;11.53;;;3.63;;
22388;SDS011;11362;48.102;11.620;2023-03-31T07:41:30;9.13;;;3.17;;
22388;SDS011;11362;48.102;11.620;2023-03-31T07:43:55;12.07;;;3.53;;
22388;SDS011;11362;48.102;11.620;2023-03-31T07:46:22;13.07;;;3.43;;
22388;SDS011;11362;48.102;11.620;2023-03-31T07:48:50;9.17;;;3.20;;
22388;SDS011;11362;48.102;11.620;2023-03-31T07:51:17;9.07;;;3.23;;
22388;SDS011;11362;48.102;11.620;2023-03-31T07:53:44;8.33;;;3.60;;
22388;SDS011;11362;48.102;11.620;2023-03-31T07:56:10;4.43;;;2.90;;
22388;SDS011;11362;48.102;11.620;2023-03-31T07:58:36;8.13;;;3.47;;
22388;SDS011;11362;48.102;11.620;2023-03-31T08:01:02;10.80;;;3.27;;
22388;SDS011;11362;48.102;11.620;2023-03-31T08:03:27;9.43;;;3.13;;
22388;SDS011;11362;48.102;11.620;2023-03-31T08:05:53;11.20;;;3.20;;
22388;SDS011;11362;48.102;11.620;2023-03-31T08:08:19;9.33;;;3.57;;
22388;SDS011;11362;48.102;11.620;2023-03-31T08:10:45;8.13;;;3.03;;
22388;SDS011;11362;48.102;11.620;2023-03-31T08:13:11;8.40;;;2.83;;
22388;SDS011;11362;48.102;11.620;2023-03-31T08:15:36;10.70;;;3.30;;
22388;SDS011;11362;48.102;11.620;2023-03-31T08:18:02;6.43;;;2.87;;
22388;SDS011;11362;48.102;11.620;2023-03-31T08:20:28;6.57;;;2.97;;
22388;SDS011;11362;48.102;11.620;2023-03-31T08:22:53;4.83;;;2.70;;
22388;SDS011;11362;48.102;11.620;2023-03-31T08:25:18;10.63;;;3.47;;
22388;SDS011;11362;48.102;11.620;2023-03-31T08:27:44;6.27;;;3.37;;
22388;SDS011;11362;48.102;11.620;2023-03-31T08:30:09;6.97;;;3.00;;
22388;SDS011;11362;48.102;11.620;2023-03-31T08:32:35;9.40;;;2.70;;
22388;SDS011;11362;48.102;11.620;2023-03-31T08:35:01;8.73;;;3.03;;
22388;SDS011;11362;48.102;11.620;2023-03-31T08:37:27;15.87;;;2.60;;
22388;SDS011;11362;48.102;11.620;2023-03-31T08:39:55;5.33;;;3.00;;
22388;SDS011;11362;48.102;11.620;2023-03-31T08:42:31;4.17;;;2.53;;
22388;SDS011;11362;48.102;11.620;2023-03-31T08:45:10;4.47;;;2.70;;
22388;SDS011;11362;48.102;11.620;2023-03-31T08:47:48;7.40;;;2.50;;
22388;SDS011;11362;48.102;11.620;2023-03-31T08:50:18;7.63;;;3.07;;
22388;SDS011;11362;48.102;11.620;2023-03-31T08:52:48;3.77;;;2.53;;
22388;SDS011;11362;48.102;11.620;2023-03-31T08:55:24;3.33;;;2.00;;
22388;SDS011;11362;48.102;11.620;2023-03-31T08:58:02;7.77;;;3.10;;
22388;SDS011;11362;48.102;11.620;2023-03-31T09:00:38;5.37;;;2.60;;
22388;SDS011;11362;48.102;11.620;2023-03-31T09:03:14;5.03;;;2.73;;
22388;SDS011;11362;48.102;11.620;2023-03-31T09:05:50;11.97;;;2.70;;
22388;SDS011;11362;48.102;11.620;2023-03-31T09:19:48;8.43;;;2.90;;
22388;SDS011;11362;48.102;11.620;2023-03-31T09:22:21;8.23;;;2.67;;
22388;SDS011;11362;48.102;11.620;2023-03-31T09:25:02;12.00;;;2.97;;
22388;SDS011;11362;48.102;11.620;2023-03-31T09:27:34;4.33;;;2.90;;
22388;SDS011;11362;48.102;11.620;2023-03-31T09:30:17;7.63;;;3.37;;
22388;SDS011;11362;48.102;11.620;2023-03-31T09:32:44;6.50;;;3.50;;
22388;SDS011;11362;48.102;11.620;2023-03-31T09:35:14;8.23;;;3.27;;
22388;SDS011;11362;48.102;11.620;2023-03-31T09:37:42;8.90;;;2.97;;
22388;SDS011;11362;48.102;11.620;2023-03-31T09:40:12;6.90;;;2.50;;
22388;SDS011;11362;48.102;11.620;2023-03-31T09:42:41;3.47;;;2.47;;
22388;SDS011;11362;48.102;11.620;2023-03-31T09:45:11;6.73;;;3.23;;
22388;SDS011;11362;48.102;11.620;2023-03-31T09:47:53;7.40;;;2.50;;
22388;SDS011;11362;48.102;11.620;2023-03-31T09:50:20;10.63;;;3.50;;
22388;SDS011;11362;48.102;11.620;2023-03-31T09:52:51;6.50;;;2.50;;
22388;SDS011;11362;48.102;11.620;2023-03-31T09:55:23;7.63;;;2.80;;
22388;SDS011;11362;48.102;11.620;2023-03-31T09:57:58;8.53;;;3.00;;
22388;SDS011;11362;48.102;11.620;2023-03-31T10:00:24;9.83;;;2.70;;
22388;SDS011;11362;48.102;11.620;2023-03-31T10:02:50;7.03;;;2.57;;
22388;SDS011;11362;48.102;11.620;2023-03-31T10:05:48;6.27;;;2.80;;
22388;SDS011;11362;48.102;11.620;2023-03-31T10:11:22;7.50;;;3.10;;
22388;SDS011;11362;48.102;11.620;2023-03-31T10:13:51;5.33;;;2.20;;
22388;SDS011;11362;48.102;11.620;2023-03-31T10:16:23;3.37;;;2.33;;
22388;SDS011;11362;48.102;11.620;2023-03-31T10:18:54;5.80;;;2.83;;
22388;SDS011;11362;48.102;11.620;2023-03-31T10:21:37;4.60;;;2.40;;
22388;SDS011;11362;48.102;11.620;2023-03-31T10:24:06;7.13;;;2.70;;
22388;SDS011;11362;48.102;11.620;2023-03-31T10:26:32;4.27;;;2.47;;
22388;SDS011;11362;48.102;11.620;2023-03-31T10:28:58;4.53;;;2.60;;
22388;SDS011;11362;48.102;11.620;2023-03-31T10:31:32;4.10;;;1.90;;
22388;SDS011;11362;48.102;11.620;2023-03-31T10:34:04;4.70;;;2.17;;
22388;SDS011;11362;48.102;11.620;2023-03-31T10:36:36;5.30;;;2.73;;
22388;SDS011;11362;48.102;11.620;2023-03-31T10:39:05;3.30;;;2.50;;
22388;SDS011;11362;48.102;11.620;2023-03-31T10:41:31;5.57;;;2.90;;
22388;SDS011;11362;48.102;11.620;2023-03-31T10:43:58;3.17;;;2.13;;
22388;SDS011;11362;48.102;11.620;2023-03-31T10:46:38;3.97;;;2.33;;
22388;SDS011;11362;48.102;11.620;2023-03-31T10:51:51;3.33;;;2.13;;
22388;SDS011;11362;48.102;11.620;2023-03-31T10:54:18;3.37;;;2.17;;
22388;SDS011;11362;48.102;11.620;2023-03-31T10:56:44;2.87;;;1.93;;
22388;SDS011;11362;48.102;11.620;2023-03-31T11:07:03;5.20;;;2.00;;
22388;SDS011;11362;48.102;11.620;2023-03-31T11:12:07;2.77;;;1.83;;
22388;SDS011;11362;48.102;11.620;2023-03-31T11:19:56;3.53;;;1.87;;
22388;SDS011;11362;48.102;11.620;2023-03-31T11:22:33;4.57;;;2.30;;
22388;SDS011;11362;48.102;11.620;2023-03-31T11:25:19;5.10;;;2.20;;
22388;SDS011;11362;48.102;11.620;2023-03-31T11:30:35;5.07;;;2.93;;
22388;SDS011;11362;48.102;11.620;2023-03-31T11:36:42;6.63;;;2.40;;
22388;SDS011;11362;48.102;11.620;2023-03-31T11:39:13;5.50;;;2.33;;
22388;SDS011;11362;48.102;11.620;2023-03-31T11:41:58;4.57;;;2.20;;
22388;SDS011;11362;48.102;11.620;2023-03-31T11:44:53;5.33;;;2.30;;
22388;SDS011;11362;48.102;11.620;2023-03-31T11:47:25;6.73;;;2.30;;
22388;SDS011;11362;48.102;11.620;2023-03-31T11:49:56;7.50;;;2.03;;
22388;SDS011;11362;48.102;11.620;2023-03-31T11:52:33;7.37;;;2.43;;
22388;SDS011;11362;48.102;11.620;2023-03-31T11:55:18;7.47;;;2.73;;
22388;SDS011;11362;48.102;11.620;2023-03-31T11:57:57;12.13;;;3.10;;
22388;SDS011;11362;48.102;11.620;2023-03-31T12:00:38;11.83;;;3.00;;
22388;SDS011;11362;48.102;11.620;2023-03-31T12:03:41;14.47;;;3.90;;
22388;SDS011;11362;48.102;11.620;2023-03-31T12:06:17;16.63;;;3.40;;
22388;SDS011;11362;48.102;11.620;2023-03-31T12:08:49;10.37;;;3.60;;
22388;SDS011;11362;48.102;11.620;2023-03-31T12:11:28;15.37;;;3.67;;
22388;SDS011;11362;48.102;11.620;2023-03-31T12:17:04;6.13;;;3.33;;
22388;SDS011;11362;48.102;11.620;2023-03-31T12:19:53;11.00;;;3.10;;
22388;SDS011;11362;48.102;11.620;2023-03-31T12:22:23;11.80;;;3.07;;
22388;SDS011;11362;48.102;11.620;2023-03-31T12:24:55;12.03;;;4.30;;
22388;SDS011;11362;48.102;11.620;2023-03-31T12:30:02;12.17;;;2.73;;
22388;SDS011;11362;48.102;11.620;2023-03-31T12:32:35;10.93;;;2.33;;
22388;SDS011;11362;48.102;11.620;2023-03-31T12:35:15;9.80;;;3.07;;
22388;SDS011;11362;48.102;11.620;2023-03-31T12:46:08;9.90;;;3.00;;
22388;SDS011;11362;48.102;11.620;2023-03-31T12:51:51;8.77;;;2.30;;
22388;SDS011;11362;48.102;11.620;2023-03-31T12:54:32;7.13;;;2.57;;
22388;SDS011;11362;48.102;11.620;2023-03-31T12:59:36;7.60;;;2.70;;
22388;SDS011;11362;48.102;11.620;2023-03-31T13:04:37;8.17;;;3.00;;
22388;SDS011;11362;48.102;11.620;2023-03-31T13:07:03;10.67;;;2.80;;
22388;SDS011;11362;48.102;11.620;2023-03-31T13:12:06;4.57;;;1.87;;
22388;SDS011;11362;48.102;11.620;2023-03-31T13:14:37;4.17;;;2.13;;
22388;SDS011;11362;48.102;11.620;2023-03-31T13:17:13;6.40;;;1.87;;
22388;SDS011;11362;48.102;11.620;2023-03-31T13:23:04;3.03;;;1.70;;
22388;SDS011;11362;48.102;11.620;2023-03-31T13:25:59;6.77;;;2.00;;
22388;SDS011;11362;48.102;11.620;2023-03-31T13:28:37;7.17;;;2.10;;
22388;SDS011;11362;48.102;11.620;2023-03-31T13:31:08;4.50;;;1.80;;
22388;SDS011;11362;48.102;11.620;2023-03-31T13:33:42;6.23;;;2.33;;
22388;SDS011;11362;48.102;11.620;2023-03-31T13:41:42;7.20;;;1.90;;
22388;SDS011;11362;48.102;11.620;2023-03-31T13:47:35;5.17;;;2.07;;
22388;SDS011;11362;48.102;11.620;2023-03-31T13:53:22;3.60;;;2.10;;
22388;SDS011;11362;48.102;11.620;2023-03-31T13:56:12;6.00;;;2.10;;
22388;SDS011;11362;48.102;11.620;2023-03-31T13:59:04;3.90;;;1.73;;
22388;SDS011;11362;48.102;11.620;2023-03-31T14:04:53;4.20;;;1.60;;
22388;SDS011;11362;48.102;11.620;2023-03-31T14:07:26;6.60;;;1.90;;
22388;SDS011;11362;48.102;11.620;2023-03-31T14:09:56;3.70;;;1.40;;
22388;SDS011;11362;48.102;11.620;2023-03-31T14:12:32;2.70;;;1.60;;
22388;SDS011;11362;48.102;11.620;2023-03-31T14:15:01;2.40;;;1.27;;
22388;SDS011;11362;48.102;11.620;2023-03-31T14:17:47;8.80;;;1.70;;
22388;SDS011;11362;48.102;11.620;2023-03-31T14:20:17;4.67;;;1.80;;
22388;SDS011;11362;48.102;11.620;2023-03-31T14:23:04;2.17;;;1.50;;
22388;SDS011;11362;48.102;11.620;2023-03-31T14:25:47;2.10;;;1.50;;
22388;SDS011;11362;48.102;11.620;2023-03-31T14:30:52;6.50;;;1.83;;
22388;SDS011;11362;48.102;11.620;2023-03-31T14:33:39;3.13;;;1.47;;
22388;SDS011;11362;48.102;11.620;2023-03-31T14:39:01;6.97;;;1.83;;
22388;SDS011;11362;48.102;11.620;2023-03-31T14:41:29;8.97;;;1.87;;
22388;SDS011;11362;48.102;11.620;2023-03-31T14:43:55;3.63;;;1.40;;
22388;SDS011;11362;48.102;11.620;2023-03-31T14:46:24;7.40;;;1.47;;
22388;SDS011;11362;48.102;11.620;2023-03-31T14:48:50;5.90;;;1.40;;
22388;SDS011;11362;48.102;11.620;2023-03-31T14:51:17;4.47;;;1.47;;
22388;SDS011;11362;48.102;11.620;2023-03-31T14:53:54;3.30;;;1.40;;
22388;SDS011;11362;48.102;11.620;2023-03-31T14:56:45;2.33;;;1.20;;
22388;SDS011;11362;48.102;11.620;2023-03-31T14:59:12;2.93;;;1.43;;
22388;SDS011;11362;48.102;11.620;2023-03-31T15:01:43;1.50;;;1.37;;
22388;SDS011;11362;48.102;11.620;2023-03-31T15:04:12;3.37;;;1.33;;
22388;SDS011;11362;48.102;11.620;2023-03-31T15:06:39;1.90;;;1.30;;
22388;SDS011;11362;48.102;11.620;2023-03-31T15:09:05;3.57;;;1.53;;
22388;SDS011;11362;48.102;11.620;2023-03-31T15:11:30;2.43;;;1.17;;
22388;SDS011;11362;48.102;11.620;2023-03-31T15:13:56;1.97;;;1.17;;
22388;SDS011;11362;48.102;11.620;2023-03-31T15:16:28;2.67;;;1.40;;
22388;SDS011;11362;48.102;11.620;2023-03-31T15:18:56;2.73;;;1.10;;
22388;SDS011;11362;48.102;11.620;2023-03-31T15:21:24;3.53;;;1.60;;
22388;SDS011;11362;48.102;11.620;2023-03-31T15:23:51;4.67;;;1.63;;
22388;SDS011;11362;48.102;11.620;2023-03-31T15:26:19;1.20;;;1.10;;
22388;SDS011;11362;48.102;11.620;2023-03-31T15:28:53;4.70;;;1.33;;
22388;SDS011;11362;48.102;11.620;2023-03-31T15:31:21;2.23;;;1.20;;
22388;SDS011;11362;48.102;11.620;2023-03-31T15:33:46;1.97;;;1.33;;
22388;SDS011;11362;48.102;11.620;2023-03-31T15:36:12;4.67;;;1.70;;
22388;SDS011;11362;48.102;11.620;2023-03-31T15:38:38;3.60;;;1.00;;
22388;SDS011;11362;48.102;11.620;2023-03-31T15:41:09;6.13;;;1.50;;
22388;SDS011;11362;48.102;11.620;2023-03-31T15:46:08;7.33;;;1.70;;
22388;SDS011;11362;48.102;11.620;2023-03-31T15:48:35;6.73;;;1.60;;
22388;SDS011;11362;48.102;11.620;2023-03-31T15:53:47;3.67;;;1.43;;
22388;SDS011;11362;48.102;11.620;2023-03-31T15:56:27;8.33;;;2.03;;
22388;SDS011;11362;48.102;11.620;2023-03-31T15:59:02;8.13;;;1.97;;
22388;SDS011;11362;48.102;11.620;2023-03-31T16:01:33;10.40;;;2.00;;
22388;SDS011;11362;48.102;11.620;2023-03-31T16:04:04;11.90;;;2.37;;
22388;SDS011;11362;48.102;11.620;2023-03-31T16:06:33;15.57;;;2.60;;
22388;SDS011;11362;48.102;11.620;2023-03-31T16:09:06;11.70;;;2.37;;
22388;SDS011;11362;48.102;11.620;2023-03-31T16:11:40;15.40;;;2.57;;
22388;SDS011;11362;48.102;11.620;2023-03-31T16:14:17;9.07;;;2.47;;
22388;SDS011;11362;48.102;11.620;2023-03-31T16:16:52;8.50;;;2.17;;
22388;SDS011;11362;48.102;11.620;2023-03-31T16:19:23;15.73;;;2.17;;
22388;SDS011;11362;48.102;11.620;2023-03-31T16:21:52;10.90;;;2.77;;
22388;SDS011;11362;48.102;11.620;2023-03-31T16:24:20;7.87;;;1.97;;
22388;SDS011;11362;48.102;11.620;2023-03-31T16:26:57;7.40;;;1.70;;
22388;SDS011;11362;48.102;11.620;2023-03-31T16:29:24;5.07;;;1.57;;
22388;SDS011;11362;48.102;11.620;2023-03-31T16:31:50;3.87;;;1.37;;
22388;SDS011;11362;48.102;11.620;2023-03-31T16:34:31;5.40;;;1.63;;
22388;SDS011;11362;48.102;11.620;2023-03-31T16:36:57;3.63;;;1.67;;
22388;SDS011;11362;48.102;11.620;2023-03-31T16:39:22;3.80;;;1.53;;
22388;SDS011;11362;48.102;11.620;2023-03-31T16:41:47;5.07;;;1.47;;
22388;SDS011;11362;48.102;11.620;2023-03-31T16:44:12;6.80;;;2.23;;
22388;SDS011;11362;48.102;11.620;2023-03-31T16:46:38;8.37;;;1.90;;
22388;SDS011;11362;48.102;11.620;2023-03-31T16:49:03;9.23;;;2.03;;
22388;SDS011;11362;48.102;11.620;2023-03-31T16:51:28;7.53;;;2.10;;
22388;SDS011;11362;48.102;11.620;2023-03-31T16:53:54;12.23;;;2.93;;
22388;SDS011;11362;48.102;11.620;2023-03-31T16:56:19;6.77;;;2.20;;
22388;SDS011;11362;48.102;11.620;2023-03-31T16:58:44;10.30;;;2.20;;
22388;SDS011;11362;48.102;11.620;2023-03-31T17:01:10;8.97;;;2.27;;
22388;SDS011;11362;48.102;11.620;2023-03-31T17:03:36;7.80;;;1.87;;
22388;SDS011;11362;48.102;11.620;2023-03-31T17:06:05;7.50;;;2.20;;
22388;SDS011;11362;48.102;11.620;2023-03-31T17:08:33;4.67;;;1.77;;
22388;SDS011;11362;48.102;11.620;2023-03-31T17:11:00;10.57;;;2.13;;